Time;durP1;ratioP1;P1;durP2;ratioP2;P2;SDS_P1;SDS_P2;PMS_P1;PMS_P2;Temp;Humidity;BMP_temperature;BMP_pressure;BME280_temperature;BME280_humidity;BME280_pressure;Samples;Min_cycle;Max_cycle;Signal;HPM_P1;HPM_P2
2023/01/27 05:35:59;;;;;;;41.30;25.20;;;;;;;-4.13;87.69;101590.20;103392;1281;613286;-85
2023/01/27 05:38:28;;;;;;;45.70;24.90;;;;;;;-3.89;86.81;101596.40;104769;1271;109158;-86
2023/01/27 05:41:00;;;;;;;42.90;26.30;;;;;;;-3.82;86.62;101594.11;105267;1264;60537;-87
2023/01/27 05:43:29;;;;;;;49.00;25.70;;;;;;;-3.73;86.74;101608.42;105158;1269;71982;-87
2023/01/27 05:46:05;;;;;;;51.00;28.10;;;;;;;-3.58;87.01;101608.48;105125;1263;64887;-85
2023/01/27 05:48:34;;;;;;;64.20;33.50;;;;;;;-3.38;86.98;101611.47;105111;1269;72715;-86
2023/01/27 05:51:02;;;;;;;55.90;31.50;;;;;;;-3.23;86.30;101611.34;105102;1267;60679;-87
2023/01/27 05:53:31;;;;;;;57.30;31.30;;;;;;;-3.12;85.68;101614.55;105293;1264;60334;-85
2023/01/27 05:55:58;;;;;;;63.80;33.10;;;;;;;-3.07;84.99;101611.00;105637;1263;71863;-86
2023/01/27 05:58:29;;;;;;;66.70;31.90;;;;;;;-3.07;84.69;101609.81;105961;1263;65312;-85
2023/01/27 06:01:01;;;;;;;56.90;29.80;;;;;;;-3.04;84.24;101598.73;105736;1264;73777;-86
2023/01/27 06:03:28;;;;;;;53.10;27.80;;;;;;;-3.06;83.96;101589.48;105044;1266;61980;-86
2023/01/27 06:05:55;;;;;;;50.10;27.40;;;;;;;-3.11;83.97;101584.45;105465;1268;60000;-84
2023/01/27 06:08:23;;;;;;;48.90;27.60;;;;;;;-3.09;84.10;101588.58;105103;1264;74445;-86
2023/01/27 06:10:50;;;;;;;49.50;27.50;;;;;;;-3.02;83.89;101593.97;105492;1264;62666;-85
2023/01/27 06:13:19;;;;;;;55.00;29.60;;;;;;;-2.97;83.73;101601.05;105875;1264;72592;-86
2023/01/27 06:15:47;;;;;;;55.30;29.50;;;;;;;-2.95;83.57;101605.00;105308;1267;59753;-84
2023/01/27 06:18:14;;;;;;;65.60;33.10;;;;;;;-2.93;83.40;101598.33;105415;1264;60068;-86
2023/01/27 06:20:41;;;;;;;47.60;27.10;;;;;;;-2.87;83.23;101597.38;105187;1266;74454;-87
2023/01/27 06:23:09;;;;;;;59.70;30.20;;;;;;;-2.85;82.90;101589.02;105231;1267;64978;-86
2023/01/27 06:25:40;;;;;;;59.60;33.00;;;;;;;-2.87;82.79;101597.73;106063;1263;72640;-84
2023/01/27 06:28:07;;;;;;;58.20;30.80;;;;;;;-2.84;82.71;101606.84;106730;1257;62890;-87
2023/01/27 06:30:39;;;;;;;54.20;29.60;;;;;;;-2.81;82.63;101607.20;106895;1256;61238;-85
2023/01/27 06:33:06;;;;;;;46.70;26.20;;;;;;;-2.81;82.32;101598.81;105832;1257;73039;-87
2023/01/27 06:35:34;;;;;;;48.40;26.70;;;;;;;-2.78;82.69;101598.50;105722;1259;63640;-87
2023/01/27 06:38:02;;;;;;;45.30;25.80;;;;;;;-2.71;82.94;101600.64;105692;1257;72698;-86
2023/01/27 06:40:29;;;;;;;51.50;28.90;;;;;;;-2.65;82.65;101596.07;105513;1262;59708;-87
2023/01/27 06:42:57;;;;;;;47.40;28.30;;;;;;;-2.61;82.91;101595.61;105683;1257;61230;-87
2023/01/27 06:45:24;;;;;;;49.50;27.50;;;;;;;-2.51;82.85;101595.52;105731;1257;74053;-86
2023/01/27 06:47:58;;;;;;;51.10;28.20;;;;;;;-2.43;82.80;101591.66;105899;1257;64630;-87
2023/01/27 06:50:27;;;;;;;52.50;27.10;;;;;;;-2.39;82.37;101589.13;106122;1257;72637;-87
2023/01/27 06:53:01;;;;;;;45.60;27.20;;;;;;;-2.37;81.92;101587.77;106120;1262;59756;-86
2023/01/27 06:55:29;;;;;;;50.70;26.90;;;;;;;-2.37;81.77;101588.30;106849;1254;61461;-86
2023/01/27 06:57:56;;;;;;;50.00;28.00;;;;;;;-2.37;81.27;101584.19;106623;1253;72873;-87
2023/01/27 07:00:23;;;;;;;50.70;27.90;;;;;;;-2.38;81.58;101583.32;106687;1254;65190;-85
2023/01/27 07:02:50;;;;;;;44.60;25.80;;;;;;;-2.34;81.90;101583.18;106791;1254;72458;-85
2023/01/27 07:05:17;;;;;;;50.40;28.00;;;;;;;-2.27;81.90;101585.46;106750;1253;60639;-86
2023/01/27 07:07:44;;;;;;;53.50;30.00;;;;;;;-2.19;81.83;101585.71;106159;1254;60112;-86
2023/01/27 07:10:11;;;;;;;52.70;29.40;;;;;;;-2.14;81.61;101583.52;106251;1254;74193;-86
2023/01/27 07:12:39;;;;;;;58.90;31.10;;;;;;;-2.10;81.16;101583.39;106589;1253;64793;-86
2023/01/27 07:15:06;;;;;;;55.30;29.40;;;;;;;-2.05;81.02;101583.59;107039;1254;73867;-86
2023/01/27 07:17:34;;;;;;;61.70;33.70;;;;;;;-1.99;81.08;101583.98;105984;1256;59647;-87
2023/01/27 07:20:01;;;;;;;62.30;31.30;;;;;;;-1.97;80.67;101583.64;105927;1254;61455;-87
2023/01/27 07:22:28;;;;;;;54.40;29.90;;;;;;;-1.94;80.57;101587.27;106648;1258;73222;-87
2023/01/27 07:24:55;;;;;;;55.30;26.70;;;;;;;-1.93;80.57;101588.64;109189;1253;64751;-88
2023/01/27 07:27:22;;;;;;;46.10;27.50;;;;;;;-1.94;80.49;101586.25;109490;1253;72676;-87
2023/01/27 07:29:50;;;;;;;50.50;30.50;;;;;;;-1.92;80.92;101581.46;109141;1254;59452;-86
2023/01/27 07:32:17;;;;;;;52.60;28.70;;;;;;;-1.87;80.97;101574.63;109193;1252;61061;-86
2023/01/27 07:34:44;;;;;;;53.40;31.90;;;;;;;-1.82;81.17;101568.49;109305;1253;72967;-87
2023/01/27 07:37:12;;;;;;;52.50;29.70;;;;;;;-1.76;81.21;101568.19;109237;1253;64546;-86
2023/01/27 07:39:48;;;;;;;46.50;28.90;;;;;;;-1.68;80.99;101562.93;109077;1252;72490;-87
2023/01/27 07:42:30;;;;;;;46.20;28.70;;;;;;;-1.59;81.18;101562.11;108653;1254;59196;-85
2023/01/27 07:44:57;;;;;;;51.80;30.30;;;;;;;-1.54;81.02;101558.88;108558;1254;59965;-86
2023/01/27 07:47:23;;;;;;;54.30;30.70;;;;;;;-1.50;80.61;101563.35;108917;1254;72856;-86
2023/01/27 07:49:50;;;;;;;58.20;30.90;;;;;;;-1.47;80.37;101558.91;109567;1254;63547;-84
2023/01/27 07:52:17;;;;;;;50.60;31.50;;;;;;;-1.43;80.34;101548.30;109504;1254;72598;-86
2023/01/27 07:54:44;;;;;;;49.00;28.60;;;;;;;-1.42;80.24;101540.75;109539;1254;61428;-85
2023/01/27 07:57:11;;;;;;;52.50;28.00;;;;;;;-1.36;80.14;101524.83;109581;1254;60158;-85
2023/01/27 07:59:38;;;;;;;52.90;29.80;;;;;;;-1.33;79.99;101516.63;109591;1254;74724;-87
2023/01/27 08:02:05;;;;;;;52.10;29.30;;;;;;;-1.37;79.92;101507.86;109554;1254;63770;-86
2023/01/27 08:04:32;;;;;;;58.50;34.60;;;;;;;-1.36;80.38;101501.67;109548;1254;72622;-87
2023/01/27 08:07:17;;;;;;;;;;;;;;;-1.24;80.73;101496.23;109575;1254;59344;-87
2023/01/27 08:09:44;;;;;;;60.50;33.80;;;;;;;-1.12;80.58;101495.74;109550;1254;60554;-87
2023/01/27 08:12:11;;;;;;;56.00;33.40;;;;;;;-1.02;80.17;101499.02;109569;1254;73054;-88
2023/01/27 08:14:38;;;;;;;58.00;33.70;;;;;;;-1.01;79.78;101507.96;108813;1254;64881;-87
2023/01/27 08:17:04;;;;;;;59.10;35.20;;;;;;;-1.04;79.58;101515.15;106491;1254;72403;-88
2023/01/27 08:19:31;;;;;;;56.80;34.80;;;;;;;-1.04;79.66;101518.41;106185;1258;61881;-87
2023/01/27 08:21:59;;;;;;;62.70;34.80;;;;;;;-0.98;79.81;101518.42;105987;1254;60348;-87
2023/01/27 08:24:26;;;;;;;61.80;36.20;;;;;;;-0.89;80.36;101510.38;105942;1254;74186;-85
2023/01/27 08:26:53;;;;;;;65.20;37.70;;;;;;;-0.80;80.03;101506.43;106107;1254;63813;-87
2023/01/27 08:29:20;;;;;;;61.10;36.70;;;;;;;-0.74;79.99;101503.35;106288;1258;74280;-86
2023/01/27 08:31:47;;;;;;;74.40;42.30;;;;;;;-0.61;80.37;101503.19;106143;1255;59742;-87
2023/01/27 08:34:15;;;;;;;69.30;40.50;;;;;;;-0.49;79.79;101505.59;106016;1259;60534;-87
2023/01/27 08:36:43;;;;;;;79.50;42.10;;;;;;;-0.38;79.54;101503.02;106327;1258;73048;-86
2023/01/27 08:39:10;;;;;;;66.20;39.40;;;;;;;-0.31;78.85;101502.84;105923;1260;64714;-84
2023/01/27 08:41:37;;;;;;;77.60;40.20;;;;;;;-0.30;78.39;101497.34;105966;1258;73838;-86
2023/01/27 08:44:04;;;;;;;73.90;41.00;;;;;;;-0.36;77.90;101482.23;105858;1259;60542;-86
2023/01/27 08:46:31;;;;;;;78.90;45.50;;;;;;;-0.46;77.64;101478.78;105911;1258;60146;-87
2023/01/27 08:48:59;;;;;;;80.10;44.30;;;;;;;-0.49;77.80;101476.91;105857;1255;73973;-87
2023/01/27 08:51:26;;;;;;;70.50;43.80;;;;;;;-0.48;77.90;101474.52;105955;1254;65114;-87
2023/01/27 08:53:53;;;;;;;72.10;39.50;;;;;;;-0.42;78.00;101472.09;105746;1254;72041;-87
2023/01/27 08:56:20;;;;;;;76.50;41.40;;;;;;;-0.37;77.94;101471.74;105616;1254;62093;-87
2023/01/27 08:58:47;;;;;;;66.40;38.30;;;;;;;-0.34;78.06;101465.56;105793;1255;61612;-87
2023/01/27 09:01:14;;;;;;;68.70;41.20;;;;;;;-0.32;77.76;101458.17;105843;1259;73837;-88
2023/01/27 09:03:41;;;;;;;79.20;43.80;;;;;;;-0.33;78.29;101460.75;105830;1260;64736;-86
2023/01/27 09:06:09;;;;;;;76.60;45.70;;;;;;;-0.25;78.69;101461.25;105761;1254;72772;-88
2023/01/27 09:08:37;;;;;;;75.90;43.50;;;;;;;-0.12;78.78;101458.98;105753;1254;60566;-88
2023/01/27 09:11:18;;;;;;;79.70;43.60;;;;;;;-0.02;78.39;101459.30;106181;1254;61350;-87
2023/01/27 09:13:49;;;;;;;88.30;45.40;;;;;;;0.07;77.91;101460.84;106115;1259;72915;-87
2023/01/27 09:16:16;;;;;;;75.70;44.00;;;;;;;0.12;77.51;101463.21;105980;1260;65370;-86
2023/01/27 09:18:43;;;;;;;81.90;44.30;;;;;;;0.16;77.38;101459.59;105823;1254;73828;-85
2023/01/27 09:21:09;;;;;;;76.90;46.00;;;;;;;0.15;76.94;101451.69;105806;1259;60664;-86
2023/01/27 09:23:37;;;;;;;77.60;46.60;;;;;;;0.07;76.97;101450.00;105861;1254;61152;-88
2023/01/27 09:26:04;;;;;;;79.90;44.80;;;;;;;0.06;77.29;101451.73;106483;1254;73808;-88
2023/01/27 09:28:31;;;;;;;81.60;45.50;;;;;;;0.13;77.59;101448.08;106067;1258;64266;-87
2023/01/27 09:30:59;;;;;;;74.40;44.20;;;;;;;0.24;77.70;101446.66;105683;1260;73623;-85
2023/01/27 09:33:26;;;;;;;80.60;45.00;;;;;;;0.26;77.58;101446.66;105773;1259;62172;-86
2023/01/27 09:36:04;;;;;;;76.90;44.30;;;;;;;0.23;77.85;101448.55;105764;1254;60987;-86
2023/01/27 09:38:33;;;;;;;68.70;40.80;;;;;;;0.30;77.84;101446.65;105764;1254;73472;-84
2023/01/27 09:41:38;;;;;;;81.40;41.40;;;;;;;0.38;77.39;101446.44;105804;1254;64759;-87
2023/01/27 09:44:28;;;;;;;77.00;40.30;;;;;;;0.34;77.19;101445.77;105839;1259;73693;-87
2023/01/27 09:47:23;;;;;;;73.40;40.50;;;;;;;0.31;77.19;101440.11;105883;1255;60456;-87
2023/01/27 09:50:12;;;;;;;66.50;39.60;;;;;;;0.32;77.25;101434.59;105760;1254;61276;-86
2023/01/27 09:53:13;;;;;;;70.60;39.30;;;;;;;0.36;77.09;101428.39;105709;1256;74862;-87
2023/01/27 09:55:48;;;;;;;61.90;36.70;;;;;;;0.42;77.09;101426.13;105762;1254;65001;-85
2023/01/27 09:58:27;;;;;;;67.50;38.10;;;;;;;0.46;77.23;101420.08;105803;1254;73647;-87
2023/01/27 10:01:33;;;;;;;65.80;36.30;;;;;;;0.53;77.43;101420.20;105802;1260;61078;-88
2023/01/27 10:04:12;;;;;;;65.80;37.90;;;;;;;0.65;77.61;101418.95;105823;1255;60413;-88
2023/01/27 14:08:20;;;;;;;51.70;26.80;;;;;;;1.55;73.64;101297.24;103882;1285;615771;-90
2023/01/27 14:11:09;;;;;;;49.40;25.30;;;;;;;1.65;73.36;101295.59;105133;1273;139988;-93
2023/01/27 14:13:37;;;;;;;52.90;27.00;;;;;;;1.63;73.25;101293.54;105559;1279;61809;-91
2023/01/27 14:16:26;;;;;;;49.30;25.50;;;;;;;1.62;73.25;101292.01;105277;1273;71385;-91
2023/01/27 14:19:02;;;;;;;42.80;22.30;;;;;;;1.62;73.26;101290.80;105127;1273;63625;-91
2023/01/27 14:21:44;;;;;;;39.60;22.30;;;;;;;1.60;73.33;101292.54;106470;1276;72514;-90
2023/01/27 14:24:43;;;;;;;45.20;23.50;;;;;;;1.59;73.28;101289.45;106491;1279;61082;-91
2023/01/27 14:27:22;;;;;;;37.30;21.80;;;;;;;1.57;73.51;101284.47;106589;1273;59383;-91
2023/01/27 14:30:14;;;;;;;48.10;23.60;;;;;;;1.54;73.57;101280.55;106397;1273;70625;-91
2023/01/27 14:33:12;;;;;;;42.10;22.20;;;;;;;1.55;73.85;101281.23;106893;1273;63873;-91
2023/01/27 14:36:09;;;;;;;41.50;24.40;;;;;;;1.51;73.97;101278.69;106780;1273;72721;-92
2023/01/27 14:39:13;;;;;;;46.90;24.80;;;;;;;1.51;73.86;101273.17;108426;1272;59386;-91
2023/01/27 14:41:50;;;;;;;49.50;23.60;;;;;;;1.45;73.80;101268.59;107869;1278;60166;-89
2023/01/27 14:44:24;;;;;;;43.80;22.90;;;;;;;1.43;73.93;101266.20;108080;1267;73031;-92
2023/01/27 14:47:06;;;;;;;50.80;24.90;;;;;;;1.39;74.08;101264.52;107760;1261;65331;-93
2023/01/27 14:49:44;;;;;;;47.10;22.60;;;;;;;1.35;74.11;101266.30;107536;1260;73479;-92
2023/01/27 14:52:43;;;;;;;47.50;24.30;;;;;;;1.28;74.12;101267.08;107790;1260;59599;-93
2023/01/27 14:56:05;;;;;;;44.70;26.60;;;;;;;1.22;73.89;101265.23;108283;1261;61296;-92
2023/01/27 15:00:01;;;;;;;62.40;33.00;;;;;;;1.08;73.72;101266.26;108366;1265;73733;-92
2023/01/27 15:03:19;;;;;;;55.70;29.00;;;;;;;0.93;73.92;101266.75;108101;1265;62813;-94
2023/01/27 15:11:16;;;;;;;95.20;48.60;;;;;;;0.71;74.52;101266.77;107149;1276;60509;-93
2023/01/27 15:18:19;;;;;;;71.70;37.90;;;;;;;0.61;75.46;101267.73;106376;1271;71527;-92
2023/01/27 15:23:07;;;;;;;73.90;37.50;;;;;;;0.59;75.61;101261.37;108277;1271;62435;-93
2023/01/27 15:32:46;;;;;;;113.50;56.90;;;;;;;0.45;75.42;101254.43;107032;1275;59787;-91
2023/01/27 15:37:33;;;;;;;138.10;72.10;;;;;;;0.31;75.78;101248.87;106589;1273;59848;-92
2023/01/27 15:42:10;;;;;;;98.60;48.30;;;;;;;0.18;76.05;101258.95;106737;1275;74438;-91
2023/01/27 15:46:58;;;;;;;122.10;62.70;;;;;;;0.04;76.50;101260.58;106158;1285;63430;-93
2023/01/27 15:53:55;;;;;;;149.00;73.00;;;;;;;-0.01;77.32;101263.19;106639;1271;59735;-91
2023/01/27 15:56:54;;;;;;;151.90;77.10;;;;;;;-0.01;77.34;101262.66;106330;1279;61741;-93
2023/01/27 15:59:45;;;;;;;160.90;86.00;;;;;;;-0.01;77.22;101264.39;106567;1271;71316;-91
2023/01/27 16:02:45;;;;;;;150.90;81.70;;;;;;;-0.05;77.29;101270.94;107262;1270;63881;-90
2023/01/27 16:05:29;;;;;;;135.90;75.80;;;;;;;-0.13;77.18;101272.02;106628;1271;71445;-91
2023/01/27 16:08:01;;;;;;;200.00;101.60;;;;;;;-0.25;77.19;101274.83;106557;1278;59513;-92
2023/01/27 16:10:33;;;;;;;208.10;108.60;;;;;;;-0.36;77.18;101267.48;106383;1271;60036;-91
2023/01/27 16:13:24;;;;;;;195.10;101.80;;;;;;;-0.45;77.35;101267.70;106174;1271;73211;-92
2023/01/27 16:16:16;;;;;;;184.00;102.50;;;;;;;-0.51;77.72;101262.58;106080;1271;63688;-92
2023/01/27 16:19:21;;;;;;;171.20;89.10;;;;;;;-0.55;78.02;101266.38;107825;1271;72777;-92
2023/01/27 16:22:04;;;;;;;175.20;90.90;;;;;;;-0.57;78.52;101262.42;106861;1271;59790;-92
2023/01/27 16:24:55;;;;;;;221.10;109.10;;;;;;;-0.53;78.85;101275.83;106990;1271;60061;-90
2023/01/27 16:27:59;;;;;;;257.40;125.50;;;;;;;-0.54;79.02;101274.77;106985;1271;72967;-91
2023/01/27 16:30:31;;;;;;;614.10;270.00;;;;;;;-0.55;78.90;101282.50;107301;1271;63871;-91
2023/01/27 16:33:03;;;;;;;570.30;281.80;;;;;;;-0.56;79.05;101283.89;106838;1271;72606;-93
2023/01/27 16:36:28;;;;;;;681.40;328.30;;;;;;;-0.60;78.95;101283.56;107940;1271;58469;-91
2023/01/27 16:39:31;;;;;;;503.60;233.20;;;;;;;-0.62;79.02;101282.37;108060;1271;60210;-90
2023/01/27 16:42:26;;;;;;;407.30;188.60;;;;;;;-0.67;78.90;101280.66;106762;1279;73443;-91
2023/01/27 16:57:07;;;;;;;364.50;169.00;;;;;;;-0.64;79.93;101280.14;107138;1282;59603;-93
2023/01/27 17:00:11;;;;;;;253.20;125.50;;;;;;;-0.63;79.64;101281.16;106536;1285;74208;-93
2023/01/27 17:02:56;;;;;;;287.40;140.30;;;;;;;-0.67;79.36;101273.29;105713;1291;63018;-92
2023/01/27 17:05:52;;;;;;;272.20;137.30;;;;;;;-0.66;79.14;101270.02;105015;1291;76164;-92
2023/01/27 17:08:23;;;;;;;236.30;119.40;;;;;;;-0.67;78.63;101268.48;104910;1296;59725;-90
2023/01/27 17:11:18;;;;;;;237.10;127.20;;;;;;;-0.71;78.62;101270.54;105523;1290;60311;-91
2023/01/27 17:14:41;;;;;;;285.30;141.90;;;;;;;-0.82;78.48;101264.05;105506;1286;73069;-91
2023/01/27 17:17:18;;;;;;;243.40;125.00;;;;;;;-0.98;78.62;101257.91;106472;1289;62978;-91
2023/01/27 17:20:31;;;;;;;263.40;139.10;;;;;;;-1.08;79.13;101253.12;106194;1286;73203;-91
2023/01/27 17:23:33;;;;;;;288.20;146.90;;;;;;;-1.17;79.39;101245.77;105926;1286;59794;-89
2023/01/27 17:39:07;;;;;;;239.80;129.50;;;;;;;-1.11;80.87;101258.95;107082;1279;73162;-92
2023/01/27 17:42:10;;;;;;;255.10;137.20;;;;;;;-1.11;80.29;101263.60;106639;1279;61724;-91
2023/01/27 17:45:42;;;;;;;257.60;135.00;;;;;;;-1.18;79.79;101257.95;107349;1279;61921;-90
2023/01/27 17:49:22;;;;;;;258.50;135.60;;;;;;;-1.24;79.39;101252.80;107357;1282;73626;-91
2023/01/27 17:52:42;;;;;;;242.30;133.90;;;;;;;-1.31;79.84;101250.25;106836;1282;64925;-92
2023/01/27 17:56:46;;;;;;;260.60;134.70;;;;;;;-1.37;79.61;101243.55;106311;1285;71424;-92
2023/01/27 17:59:29;;;;;;;268.60;147.50;;;;;;;-1.42;80.19;101237.21;105484;1292;60571;-93
2023/01/27 18:02:07;;;;;;;237.30;128.10;;;;;;;-1.43;80.62;101237.21;105127;1295;60284;-92
2023/01/27 18:04:44;;;;;;;261.80;140.20;;;;;;;-1.44;80.59;101236.20;105158;1292;74166;-92
2023/01/27 18:07:48;;;;;;;212.60;108.80;;;;;;;-1.47;81.25;101233.63;105585;1286;64812;-93
2023/01/27 18:10:32;;;;;;;240.50;130.70;;;;;;;-1.47;81.22;101234.65;106614;1282;72458;-92
2023/01/27 18:19:06;;;;;;;255.70;138.50;;;;;;;-1.44;81.26;101230.20;107717;1279;58830;-92
2023/01/27 18:21:46;;;;;;;261.60;136.60;;;;;;;-1.46;80.65;101228.65;106807;1282;73083;-91
2023/01/27 18:28:29;;;;;;;263.40;149.40;;;;;;;-1.53;80.45;101231.40;107827;1268;72926;-94
2023/01/27 18:31:00;;;;;;;285.20;152.70;;;;;;;-1.58;80.50;101232.42;106982;1274;62071;-93
2023/01/27 18:33:35;;;;;;;279.10;153.70;;;;;;;-1.64;80.41;101234.48;107448;1274;60034;-92
2023/01/27 18:36:34;;;;;;;288.60;153.20;;;;;;;-1.67;80.92;101233.11;107199;1274;73823;-94
2023/01/27 18:39:56;;;;;;;260.40;146.00;;;;;;;-1.70;80.90;101228.82;107763;1274;63663;-92
2023/01/27 18:42:29;;;;;;;285.40;152.30;;;;;;;-1.66;81.07;101226.09;107698;1274;73068;-92
2023/01/27 18:45:31;;;;;;;275.00;149.80;;;;;;;-1.62;81.05;101220.94;107792;1274;58341;-91
2023/01/27 18:49:30;;;;;;;260.70;138.50;;;;;;;-1.59;80.94;101227.28;107989;1274;59114;-93
2023/01/27 18:53:16;;;;;;;276.50;141.30;;;;;;;-1.66;80.59;101217.86;107895;1274;71707;-93
2023/01/27 18:57:03;;;;;;;289.90;141.80;;;;;;;-1.72;80.70;101206.37;107974;1274;63329;-91
2023/01/27 18:59:39;;;;;;;304.20;157.70;;;;;;;-1.75;80.60;101205.17;107496;1274;72600;-91
2023/01/27 19:02:50;;;;;;;311.10;157.10;;;;;;;-1.78;80.38;101197.28;108006;1271;59992;-91
2023/01/27 19:05:49;;;;;;;304.90;148.40;;;;;;;-1.81;80.38;101200.71;108157;1271;58699;-92
2023/01/27 19:08:44;;;;;;;286.70;144.90;;;;;;;-1.86;80.14;101200.37;107961;1271;72956;-92
2023/01/27 22:46:01;;;;;;;75.50;39.60;;;;;;;-2.96;84.51;101091.45;106096;1281;613762;-90
2023/01/27 22:48:33;;;;;;;75.70;39.20;;;;;;;-2.77;84.18;101087.40;107422;1273;118152;-91
2023/01/27 22:51:03;;;;;;;68.90;36.50;;;;;;;-2.67;84.05;101086.40;106534;1257;61305;-90
2023/01/27 22:54:19;;;;;;;61.40;35.80;;;;;;;-2.57;83.86;101082.14;103521;1292;600463;-92
2023/01/27 22:56:53;;;;;;;61.40;30.60;;;;;;;-2.56;83.35;101082.64;106332;1266;61063;-93
2023/01/27 22:59:22;;;;;;;62.90;35.30;;;;;;;-2.61;82.96;101082.13;106236;1266;61121;-91
2023/01/27 23:01:52;;;;;;;66.60;33.60;;;;;;;-2.61;82.68;101081.11;106152;1270;70754;-91
2023/01/27 23:04:32;;;;;;;54.70;29.60;;;;;;;-2.60;82.99;101079.73;107390;1253;64870;-90
2023/01/27 23:07:03;;;;;;;51.60;28.80;;;;;;;-2.56;82.74;101076.31;106130;1254;765085;-92
2023/01/27 23:09:33;;;;;;;56.70;32.80;;;;;;;-2.56;82.60;101076.31;106738;1252;59760;-92
2023/01/27 23:12:09;;;;;;;57.80;29.70;;;;;;;-2.57;82.52;101072.04;107086;1256;60765;-92
2023/01/27 23:14:39;;;;;;;51.50;29.50;;;;;;;-2.57;82.19;101068.44;107413;1252;70906;-90
2023/01/27 23:17:11;;;;;;;52.50;28.30;;;;;;;-2.60;82.03;101071.01;107252;1252;64998;-93
2023/01/27 23:19:40;;;;;;;56.90;30.60;;;;;;;-2.62;82.08;101079.39;107609;1254;73768;-91
2023/01/27 23:22:12;;;;;;;53.10;30.70;;;;;;;-2.63;81.99;101081.96;108803;1252;61908;-91
2023/01/27 23:24:45;;;;;;;53.10;30.70;;;;;;;-2.66;81.82;101084.01;107644;1253;61037;-90
2023/01/27 23:27:18;;;;;;;50.70;30.00;;;;;;;-2.67;82.01;101085.87;107190;1252;71957;-93
2023/01/27 23:29:46;;;;;;;60.70;33.00;;;;;;;-2.67;82.02;101089.82;108531;1252;64303;-89
2023/01/27 23:32:17;;;;;;;57.70;31.50;;;;;;;-2.71;81.89;101096.82;108573;1252;72587;-90
2023/01/27 23:34:47;;;;;;;58.80;32.30;;;;;;;-2.72;82.14;101095.96;108992;1252;59675;-94
2023/01/27 23:37:39;;;;;;;58.60;32.20;;;;;;;-2.70;82.06;101094.27;106366;1291;600302;-92
2023/01/27 23:40:21;;;;;;;52.10;31.30;;;;;;;-2.76;81.97;101095.27;108768;1266;60123;-92
2023/01/27 23:43:03;;;;;;;51.80;28.30;;;;;;;-2.78;82.00;101095.27;108057;1254;60353;-93
2023/01/27 23:45:33;;;;;;;55.90;31.00;;;;;;;-2.77;81.88;101099.20;108162;1254;70944;-90
2023/01/27 23:48:04;;;;;;;51.70;29.20;;;;;;;-2.77;81.88;101094.24;107492;1254;63770;-92
2023/01/27 23:50:34;;;;;;;50.90;29.60;;;;;;;-2.78;81.98;101095.43;108180;1251;974827;-88
2023/01/27 23:53:16;;;;;;;55.80;31.30;;;;;;;-2.78;81.91;101084.48;109105;1254;62159;-91
2023/01/27 23:55:54;;;;;;;48.50;27.50;;;;;;;-2.78;81.85;101084.67;109106;1252;60263;-89
2023/01/27 23:58:24;;;;;;;45.80;25.90;;;;;;;-2.78;82.16;101083.13;108596;1253;72168;-92
